sensor_id;sensor_type;location;lat;lon;timestamp;P1;durP1;ratioP1;P2;durP2;ratioP2
19183;SDS011;9724;51.194;6.856;2023-05-19T00:00:38;6.57;;;3.43;;
19183;SDS011;9724;51.194;6.856;2023-05-19T00:03:05;7.47;;;3.70;;
19183;SDS011;9724;51.194;6.856;2023-05-19T00:05:33;7.67;;;3.90;;
19183;SDS011;9724;51.194;6.856;2023-05-19T00:08:01;10.57;;;3.90;;
19183;SDS011;9724;51.194;6.856;2023-05-19T00:10:28;6.80;;;3.53;;
19183;SDS011;9724;51.194;6.856;2023-05-19T00:12:57;5.90;;;3.60;;
19183;SDS011;9724;51.194;6.856;2023-05-19T00:15:26;7.10;;;3.53;;
19183;SDS011;9724;51.194;6.856;2023-05-19T00:17:55;6.13;;;3.60;;
19183;SDS011;9724;51.194;6.856;2023-05-19T00:20:22;10.20;;;3.40;;
19183;SDS011;9724;51.194;6.856;2023-05-19T00:22:48;8.67;;;3.63;;
19183;SDS011;9724;51.194;6.856;2023-05-19T00:25:16;12.53;;;3.40;;
19183;SDS011;9724;51.194;6.856;2023-05-19T00:27:42;6.20;;;3.13;;
19183;SDS011;9724;51.194;6.856;2023-05-19T00:30:08;9.90;;;3.53;;
19183;SDS011;9724;51.194;6.856;2023-05-19T00:32:35;9.50;;;3.43;;
19183;SDS011;9724;51.194;6.856;2023-05-19T00:35:01;6.63;;;3.47;;
19183;SDS011;9724;51.194;6.856;2023-05-19T00:37:28;7.87;;;3.30;;
19183;SDS011;9724;51.194;6.856;2023-05-19T00:39:54;5.87;;;3.47;;
19183;SDS011;9724;51.194;6.856;2023-05-19T00:42:21;7.93;;;4.00;;
19183;SDS011;9724;51.194;6.856;2023-05-19T00:44:47;4.40;;;3.20;;
19183;SDS011;9724;51.194;6.856;2023-05-19T00:47:13;10.93;;;4.30;;
19183;SDS011;9724;51.194;6.856;2023-05-19T00:49:40;7.77;;;3.60;;
19183;SDS011;9724;51.194;6.856;2023-05-19T00:52:06;6.13;;;4.00;;
19183;SDS011;9724;51.194;6.856;2023-05-19T00:54:32;9.27;;;3.87;;
19183;SDS011;9724;51.194;6.856;2023-05-19T00:56:59;7.70;;;3.67;;
19183;SDS011;9724;51.194;6.856;2023-05-19T00:59:26;6.20;;;3.63;;
19183;SDS011;9724;51.194;6.856;2023-05-19T01:01:52;5.40;;;3.93;;
19183;SDS011;9724;51.194;6.856;2023-05-19T01:04:18;11.00;;;4.13;;
19183;SDS011;9724;51.194;6.856;2023-05-19T01:06:46;9.53;;;3.90;;
19183;SDS011;9724;51.194;6.856;2023-05-19T01:09:19;9.70;;;4.30;;
19183;SDS011;9724;51.194;6.856;2023-05-19T01:11:45;8.07;;;4.20;;
19183;SDS011;9724;51.194;6.856;2023-05-19T01:14:12;9.67;;;4.57;;
19183;SDS011;9724;51.194;6.856;2023-05-19T01:16:39;6.70;;;4.00;;
19183;SDS011;9724;51.194;6.856;2023-05-19T01:19:20;12.30;;;4.10;;
19183;SDS011;9724;51.194;6.856;2023-05-19T01:25:19;8.53;;;4.53;;
19183;SDS011;9724;51.194;6.856;2023-05-19T01:28:11;13.10;;;5.03;;
19183;SDS011;9724;51.194;6.856;2023-05-19T01:30:44;13.10;;;4.73;;
19183;SDS011;9724;51.194;6.856;2023-05-19T01:33:13;10.00;;;4.93;;
19183;SDS011;9724;51.194;6.856;2023-05-19T01:35:40;10.80;;;5.30;;
19183;SDS011;9724;51.194;6.856;2023-05-19T01:38:08;9.97;;;4.90;;
19183;SDS011;9724;51.194;6.856;2023-05-19T01:40:35;11.43;;;5.27;;
19183;SDS011;9724;51.194;6.856;2023-05-19T01:43:02;9.93;;;5.37;;
19183;SDS011;9724;51.194;6.856;2023-05-19T01:45:29;13.73;;;5.80;;
19183;SDS011;9724;51.194;6.856;2023-05-19T01:47:58;14.80;;;6.07;;
19183;SDS011;9724;51.194;6.856;2023-05-19T01:50:25;11.80;;;6.23;;
19183;SDS011;9724;51.194;6.856;2023-05-19T01:52:52;13.33;;;6.53;;
19183;SDS011;9724;51.194;6.856;2023-05-19T01:55:18;16.17;;;7.10;;
19183;SDS011;9724;51.194;6.856;2023-05-19T01:57:46;16.80;;;6.70;;
19183;SDS011;9724;51.194;6.856;2023-05-19T02:00:21;13.80;;;6.90;;
19183;SDS011;9724;51.194;6.856;2023-05-19T02:02:54;13.67;;;5.90;;
19183;SDS011;9724;51.194;6.856;2023-05-19T02:05:33;13.67;;;6.17;;
19183;SDS011;9724;51.194;6.856;2023-05-19T02:08:05;13.33;;;5.77;;
19183;SDS011;9724;51.194;6.856;2023-05-19T02:10:38;12.73;;;6.57;;
19183;SDS011;9724;51.194;6.856;2023-05-19T02:13:08;13.30;;;5.83;;
19183;SDS011;9724;51.194;6.856;2023-05-19T02:15:37;11.73;;;5.07;;
19183;SDS011;9724;51.194;6.856;2023-05-19T02:18:04;14.40;;;5.37;;
19183;SDS011;9724;51.194;6.856;2023-05-19T02:20:32;12.27;;;5.97;;
19183;SDS011;9724;51.194;6.856;2023-05-19T02:22:58;14.77;;;5.87;;
19183;SDS011;9724;51.194;6.856;2023-05-19T02:25:25;12.07;;;5.87;;
19183;SDS011;9724;51.194;6.856;2023-05-19T02:27:51;9.90;;;5.57;;
19183;SDS011;9724;51.194;6.856;2023-05-19T02:30:18;13.40;;;5.73;;
19183;SDS011;9724;51.194;6.856;2023-05-19T02:32:44;13.57;;;5.80;;
19183;SDS011;9724;51.194;6.856;2023-05-19T02:35:11;12.20;;;5.57;;
19183;SDS011;9724;51.194;6.856;2023-05-19T02:37:38;9.20;;;4.93;;
19183;SDS011;9724;51.194;6.856;2023-05-19T02:40:04;12.90;;;5.80;;
19183;SDS011;9724;51.194;6.856;2023-05-19T02:42:32;15.17;;;5.77;;
19183;SDS011;9724;51.194;6.856;2023-05-19T02:44:58;10.77;;;5.40;;
19183;SDS011;9724;51.194;6.856;2023-05-19T02:47:25;13.53;;;5.23;;
19183;SDS011;9724;51.194;6.856;2023-05-19T02:49:51;14.07;;;5.63;;
19183;SDS011;9724;51.194;6.856;2023-05-19T02:52:17;12.27;;;5.20;;
19183;SDS011;9724;51.194;6.856;2023-05-19T02:54:44;13.80;;;5.07;;
19183;SDS011;9724;51.194;6.856;2023-05-19T02:57:10;12.53;;;5.43;;
19183;SDS011;9724;51.194;6.856;2023-05-19T02:59:37;11.33;;;5.43;;
19183;SDS011;9724;51.194;6.856;2023-05-19T03:02:03;11.23;;;5.37;;
19183;SDS011;9724;51.194;6.856;2023-05-19T03:04:29;11.30;;;5.10;;
19183;SDS011;9724;51.194;6.856;2023-05-19T03:06:57;15.40;;;4.90;;
19183;SDS011;9724;51.194;6.856;2023-05-19T03:09:23;11.03;;;5.03;;
19183;SDS011;9724;51.194;6.856;2023-05-19T03:11:50;9.80;;;4.90;;
19183;SDS011;9724;51.194;6.856;2023-05-19T03:14:16;10.87;;;4.70;;
19183;SDS011;9724;51.194;6.856;2023-05-19T03:16:43;10.90;;;4.83;;
19183;SDS011;9724;51.194;6.856;2023-05-19T03:19:09;8.97;;;4.63;;
19183;SDS011;9724;51.194;6.856;2023-05-19T03:21:36;9.90;;;4.40;;
19183;SDS011;9724;51.194;6.856;2023-05-19T03:24:02;13.17;;;5.17;;
19183;SDS011;9724;51.194;6.856;2023-05-19T03:26:29;7.30;;;4.47;;
19183;SDS011;9724;51.194;6.856;2023-05-19T03:28:55;12.03;;;4.43;;
19183;SDS011;9724;51.194;6.856;2023-05-19T03:31:22;6.63;;;3.83;;
19183;SDS011;9724;51.194;6.856;2023-05-19T03:33:48;8.57;;;4.13;;
19183;SDS011;9724;51.194;6.856;2023-05-19T03:36:14;11.60;;;4.10;;
19183;SDS011;9724;51.194;6.856;2023-05-19T03:38:41;13.00;;;4.50;;
19183;SDS011;9724;51.194;6.856;2023-05-19T03:41:08;9.13;;;4.50;;
19183;SDS011;9724;51.194;6.856;2023-05-19T03:43:34;6.93;;;4.87;;
19183;SDS011;9724;51.194;6.856;2023-05-19T03:46:01;12.93;;;4.80;;
19183;SDS011;9724;51.194;6.856;2023-05-19T03:48:27;12.93;;;4.30;;
19183;SDS011;9724;51.194;6.856;2023-05-19T03:50:54;10.13;;;4.60;;
19183;SDS011;9724;51.194;6.856;2023-05-19T03:53:20;8.90;;;4.33;;
19183;SDS011;9724;51.194;6.856;2023-05-19T03:55:46;7.43;;;4.00;;
19183;SDS011;9724;51.194;6.856;2023-05-19T03:58:14;8.33;;;4.77;;
19183;SDS011;9724;51.194;6.856;2023-05-19T04:00:41;7.40;;;4.10;;
19183;SDS011;9724;51.194;6.856;2023-05-19T04:03:08;9.50;;;4.47;;
19183;SDS011;9724;51.194;6.856;2023-05-19T04:05:34;8.73;;;4.47;;
19183;SDS011;9724;51.194;6.856;2023-05-19T04:08:01;5.60;;;4.07;;
19183;SDS011;9724;51.194;6.856;2023-05-19T04:10:27;9.50;;;4.63;;
19183;SDS011;9724;51.194;6.856;2023-05-19T04:12:53;9.53;;;4.17;;
19183;SDS011;9724;51.194;6.856;2023-05-19T04:15:20;10.57;;;4.50;;
19183;SDS011;9724;51.194;6.856;2023-05-19T04:17:46;9.70;;;4.70;;
19183;SDS011;9724;51.194;6.856;2023-05-19T04:20:13;8.23;;;4.87;;
19183;SDS011;9724;51.194;6.856;2023-05-19T04:22:39;8.97;;;4.67;;
19183;SDS011;9724;51.194;6.856;2023-05-19T04:25:06;7.13;;;4.47;;
19183;SDS011;9724;51.194;6.856;2023-05-19T04:27:33;8.70;;;4.70;;
19183;SDS011;9724;51.194;6.856;2023-05-19T04:30:01;5.43;;;4.00;;
19183;SDS011;9724;51.194;6.856;2023-05-19T04:32:28;6.53;;;4.73;;
19183;SDS011;9724;51.194;6.856;2023-05-19T04:34:55;5.67;;;4.40;;
19183;SDS011;9724;51.194;6.856;2023-05-19T04:37:23;11.53;;;4.33;;
19183;SDS011;9724;51.194;6.856;2023-05-19T04:39:50;7.67;;;4.63;;
19183;SDS011;9724;51.194;6.856;2023-05-19T04:42:16;11.63;;;4.73;;
19183;SDS011;9724;51.194;6.856;2023-05-19T04:44:43;10.77;;;4.17;;
19183;SDS011;9724;51.194;6.856;2023-05-19T04:47:09;9.30;;;3.07;;
19183;SDS011;9724;51.194;6.856;2023-05-19T04:49:36;13.63;;;4.10;;
19183;SDS011;9724;51.194;6.856;2023-05-19T04:52:04;6.30;;;4.33;;
19183;SDS011;9724;51.194;6.856;2023-05-19T04:54:32;10.00;;;3.13;;
19183;SDS011;9724;51.194;6.856;2023-05-19T04:56:59;6.03;;;3.37;;
19183;SDS011;9724;51.194;6.856;2023-05-19T04:59:25;9.93;;;2.80;;
19183;SDS011;9724;51.194;6.856;2023-05-19T05:01:51;9.37;;;3.00;;
19183;SDS011;9724;51.194;6.856;2023-05-19T05:04:18;7.70;;;2.77;;
19183;SDS011;9724;51.194;6.856;2023-05-19T05:06:44;9.40;;;2.53;;
19183;SDS011;9724;51.194;6.856;2023-05-19T05:09:12;15.97;;;2.37;;
19183;SDS011;9724;51.194;6.856;2023-05-19T05:11:39;10.93;;;2.27;;
19183;SDS011;9724;51.194;6.856;2023-05-19T05:14:06;19.73;;;2.80;;
19183;SDS011;9724;51.194;6.856;2023-05-19T05:16:33;11.77;;;2.57;;
19183;SDS011;9724;51.194;6.856;2023-05-19T05:19:00;7.93;;;2.30;;
19183;SDS011;9724;51.194;6.856;2023-05-19T05:21:27;7.37;;;2.23;;
19183;SDS011;9724;51.194;6.856;2023-05-19T05:23:54;9.17;;;2.50;;
19183;SDS011;9724;51.194;6.856;2023-05-19T05:26:21;9.20;;;2.70;;
19183;SDS011;9724;51.194;6.856;2023-05-19T05:28:48;7.43;;;2.33;;
19183;SDS011;9724;51.194;6.856;2023-05-19T05:31:15;8.90;;;2.53;;
19183;SDS011;9724;51.194;6.856;2023-05-19T05:33:41;6.20;;;2.43;;
19183;SDS011;9724;51.194;6.856;2023-05-19T05:36:08;5.57;;;2.10;;
19183;SDS011;9724;51.194;6.856;2023-05-19T05:38:34;8.13;;;2.60;;
19183;SDS011;9724;51.194;6.856;2023-05-19T05:41:00;4.47;;;2.30;;
19183;SDS011;9724;51.194;6.856;2023-05-19T05:43:27;8.17;;;2.37;;
19183;SDS011;9724;51.194;6.856;2023-05-19T05:45:55;7.50;;;2.40;;
19183;SDS011;9724;51.194;6.856;2023-05-19T05:48:21;7.53;;;2.30;;
19183;SDS011;9724;51.194;6.856;2023-05-19T05:50:48;3.97;;;1.80;;
19183;SDS011;9724;51.194;6.856;2023-05-19T05:53:17;5.87;;;2.33;;
19183;SDS011;9724;51.194;6.856;2023-05-19T05:55:44;13.60;;;2.20;;
19183;SDS011;9724;51.194;6.856;2023-05-19T05:58:11;8.90;;;2.37;;
19183;SDS011;9724;51.194;6.856;2023-05-19T06:00:39;12.67;;;2.83;;
19183;SDS011;9724;51.194;6.856;2023-05-19T06:03:08;7.77;;;2.20;;
19183;SDS011;9724;51.194;6.856;2023-05-19T06:05:35;6.83;;;2.33;;
19183;SDS011;9724;51.194;6.856;2023-05-19T06:08:02;7.00;;;2.13;;
19183;SDS011;9724;51.194;6.856;2023-05-19T06:10:29;6.53;;;2.40;;
19183;SDS011;9724;51.194;6.856;2023-05-19T06:12:55;6.40;;;2.37;;
19183;SDS011;9724;51.194;6.856;2023-05-19T06:15:22;8.20;;;2.50;;
19183;SDS011;9724;51.194;6.856;2023-05-19T06:17:48;9.27;;;2.53;;
19183;SDS011;9724;51.194;6.856;2023-05-19T06:20:16;8.37;;;2.60;;
19183;SDS011;9724;51.194;6.856;2023-05-19T06:22:42;6.43;;;2.17;;
19183;SDS011;9724;51.194;6.856;2023-05-19T06:25:09;7.23;;;2.13;;
19183;SDS011;9724;51.194;6.856;2023-05-19T06:27:35;7.73;;;2.03;;
19183;SDS011;9724;51.194;6.856;2023-05-19T06:30:01;6.67;;;2.13;;
19183;SDS011;9724;51.194;6.856;2023-05-19T06:32:33;8.53;;;2.17;;
19183;SDS011;9724;51.194;6.856;2023-05-19T06:34:59;8.03;;;2.17;;
19183;SDS011;9724;51.194;6.856;2023-05-19T06:37:26;9.97;;;2.13;;
19183;SDS011;9724;51.194;6.856;2023-05-19T06:39:52;4.43;;;2.00;;
19183;SDS011;9724;51.194;6.856;2023-05-19T06:42:19;7.53;;;2.30;;
19183;SDS011;9724;51.194;6.856;2023-05-19T06:44:47;10.10;;;2.17;;
19183;SDS011;9724;51.194;6.856;2023-05-19T06:47:13;9.50;;;1.80;;
19183;SDS011;9724;51.194;6.856;2023-05-19T06:49:40;8.17;;;1.93;;
19183;SDS011;9724;51.194;6.856;2023-05-19T06:52:07;4.27;;;1.77;;
19183;SDS011;9724;51.194;6.856;2023-05-19T06:54:34;4.83;;;1.70;;
19183;SDS011;9724;51.194;6.856;2023-05-19T06:57:00;9.47;;;2.20;;
19183;SDS011;9724;51.194;6.856;2023-05-19T06:59:26;5.97;;;2.00;;
19183;SDS011;9724;51.194;6.856;2023-05-19T07:01:52;5.00;;;2.20;;
19183;SDS011;9724;51.194;6.856;2023-05-19T07:04:19;4.37;;;2.03;;
19183;SDS011;9724;51.194;6.856;2023-05-19T07:06:45;9.97;;;2.27;;
19183;SDS011;9724;51.194;6.856;2023-05-19T07:09:12;5.37;;;2.03;;
19183;SDS011;9724;51.194;6.856;2023-05-19T07:11:39;6.53;;;2.43;;
19183;SDS011;9724;51.194;6.856;2023-05-19T07:14:05;7.80;;;2.60;;
19183;SDS011;9724;51.194;6.856;2023-05-19T07:16:32;15.67;;;2.37;;
19183;SDS011;9724;51.194;6.856;2023-05-19T07:18:58;7.30;;;2.00;;
19183;SDS011;9724;51.194;6.856;2023-05-19T07:21:24;5.20;;;2.17;;
19183;SDS011;9724;51.194;6.856;2023-05-19T07:23:51;5.40;;;1.90;;
19183;SDS011;9724;51.194;6.856;2023-05-19T07:26:17;3.37;;;1.90;;
19183;SDS011;9724;51.194;6.856;2023-05-19T07:28:44;5.43;;;2.00;;
19183;SDS011;9724;51.194;6.856;2023-05-19T07:31:10;5.20;;;2.07;;
19183;SDS011;9724;51.194;6.856;2023-05-19T07:33:37;8.00;;;2.40;;
19183;SDS011;9724;51.194;6.856;2023-05-19T07:36:03;4.13;;;1.73;;
19183;SDS011;9724;51.194;6.856;2023-05-19T07:38:29;8.47;;;2.07;;
19183;SDS011;9724;51.194;6.856;2023-05-19T07:40:58;4.50;;;1.90;;
19183;SDS011;9724;51.194;6.856;2023-05-19T07:43:25;6.37;;;1.97;;
19183;SDS011;9724;51.194;6.856;2023-05-19T07:45:52;6.67;;;2.10;;
19183;SDS011;9724;51.194;6.856;2023-05-19T07:48:20;4.93;;;1.90;;
19183;SDS011;9724;51.194;6.856;2023-05-19T07:50:47;8.07;;;2.10;;
19183;SDS011;9724;51.194;6.856;2023-05-19T07:53:14;11.67;;;2.23;;
19183;SDS011;9724;51.194;6.856;2023-05-19T07:55:41;5.90;;;2.00;;
19183;SDS011;9724;51.194;6.856;2023-05-19T07:58:07;5.63;;;1.93;;
19183;SDS011;9724;51.194;6.856;2023-05-19T08:00:33;7.27;;;1.90;;
19183;SDS011;9724;51.194;6.856;2023-05-19T08:03:01;6.43;;;2.43;;
19183;SDS011;9724;51.194;6.856;2023-05-19T08:05:27;6.73;;;2.00;;
19183;SDS011;9724;51.194;6.856;2023-05-19T08:07:54;4.77;;;1.90;;
19183;SDS011;9724;51.194;6.856;2023-05-19T08:10:21;10.43;;;1.87;;
19183;SDS011;9724;51.194;6.856;2023-05-19T08:12:48;5.57;;;2.00;;
19183;SDS011;9724;51.194;6.856;2023-05-19T08:15:14;4.83;;;1.97;;
19183;SDS011;9724;51.194;6.856;2023-05-19T08:17:41;7.20;;;1.90;;
19183;SDS011;9724;51.194;6.856;2023-05-19T08:20:08;10.37;;;2.20;;
19183;SDS011;9724;51.194;6.856;2023-05-19T08:22:36;6.00;;;1.73;;
19183;SDS011;9724;51.194;6.856;2023-05-19T08:25:03;10.00;;;1.97;;
19183;SDS011;9724;51.194;6.856;2023-05-19T08:27:30;6.33;;;1.70;;
19183;SDS011;9724;51.194;6.856;2023-05-19T08:29:57;4.00;;;1.77;;
19183;SDS011;9724;51.194;6.856;2023-05-19T08:32:23;7.53;;;2.13;;
19183;SDS011;9724;51.194;6.856;2023-05-19T08:34:50;4.53;;;1.83;;
19183;SDS011;9724;51.194;6.856;2023-05-19T08:37:17;7.30;;;1.90;;
19183;SDS011;9724;51.194;6.856;2023-05-19T08:39:43;5.03;;;1.80;;
19183;SDS011;9724;51.194;6.856;2023-05-19T08:42:09;4.30;;;1.60;;
19183;SDS011;9724;51.194;6.856;2023-05-19T08:44:36;11.77;;;2.67;;
19183;SDS011;9724;51.194;6.856;2023-05-19T08:47:04;8.53;;;1.93;;
19183;SDS011;9724;51.194;6.856;2023-05-19T08:49:41;4.37;;;1.60;;
19183;SDS011;9724;51.194;6.856;2023-05-19T08:52:14;6.23;;;1.93;;
19183;SDS011;9724;51.194;6.856;2023-05-19T08:54:45;7.50;;;2.00;;
19183;SDS011;9724;51.194;6.856;2023-05-19T08:57:15;8.60;;;2.07;;
19183;SDS011;9724;51.194;6.856;2023-05-19T08:59:42;8.00;;;1.70;;
19183;SDS011;9724;51.194;6.856;2023-05-19T09:02:08;5.37;;;1.90;;
19183;SDS011;9724;51.194;6.856;2023-05-19T09:04:36;9.43;;;2.50;;
19183;SDS011;9724;51.194;6.856;2023-05-19T09:07:03;7.13;;;1.87;;
19183;SDS011;9724;51.194;6.856;2023-05-19T09:09:31;10.43;;;1.90;;
19183;SDS011;9724;51.194;6.856;2023-05-19T09:11:57;5.10;;;1.90;;
19183;SDS011;9724;51.194;6.856;2023-05-19T09:14:23;5.83;;;1.60;;
19183;SDS011;9724;51.194;6.856;2023-05-19T09:16:50;3.10;;;1.70;;
19183;SDS011;9724;51.194;6.856;2023-05-19T09:19:17;6.40;;;2.00;;
19183;SDS011;9724;51.194;6.856;2023-05-19T09:21:45;5.83;;;1.73;;
19183;SDS011;9724;51.194;6.856;2023-05-19T09:24:11;10.73;;;2.13;;
19183;SDS011;9724;51.194;6.856;2023-05-19T09:26:39;5.30;;;2.30;;
19183;SDS011;9724;51.194;6.856;2023-05-19T09:29:09;10.67;;;2.73;;
19183;SDS011;9724;51.194;6.856;2023-05-19T09:31:36;4.47;;;1.73;;
19183;SDS011;9724;51.194;6.856;2023-05-19T09:34:03;4.80;;;1.90;;
19183;SDS011;9724;51.194;6.856;2023-05-19T09:36:30;2.47;;;1.53;;
19183;SDS011;9724;51.194;6.856;2023-05-19T09:38:57;6.70;;;1.77;;
19183;SDS011;9724;51.194;6.856;2023-05-19T09:41:23;7.63;;;1.97;;
19183;SDS011;9724;51.194;6.856;2023-05-19T09:43:53;7.30;;;1.67;;
19183;SDS011;9724;51.194;6.856;2023-05-19T09:46:20;6.43;;;2.00;;
19183;SDS011;9724;51.194;6.856;2023-05-19T09:48:51;4.47;;;2.40;;
19183;SDS011;9724;51.194;6.856;2023-05-19T09:51:22;4.23;;;1.80;;
19183;SDS011;9724;51.194;6.856;2023-05-19T09:53:48;5.57;;;2.10;;
19183;SDS011;9724;51.194;6.856;2023-05-19T09:56:15;8.30;;;1.77;;
19183;SDS011;9724;51.194;6.856;2023-05-19T09:58:41;5.93;;;2.00;;
19183;SDS011;9724;51.194;6.856;2023-05-19T10:01:08;6.53;;;2.03;;
19183;SDS011;9724;51.194;6.856;2023-05-19T10:03:35;8.73;;;2.10;;
19183;SDS011;9724;51.194;6.856;2023-05-19T10:06:02;7.57;;;2.10;;
19183;SDS011;9724;51.194;6.856;2023-05-19T10:08:29;8.67;;;1.97;;
19183;SDS011;9724;51.194;6.856;2023-05-19T10:10:56;5.17;;;1.70;;
19183;SDS011;9724;51.194;6.856;2023-05-19T10:13:23;6.97;;;2.00;;
19183;SDS011;9724;51.194;6.856;2023-05-19T10:15:49;6.33;;;2.10;;
19183;SDS011;9724;51.194;6.856;2023-05-19T10:18:25;2.47;;;1.70;;
19183;SDS011;9724;51.194;6.856;2023-05-19T10:20:51;5.97;;;1.90;;
19183;SDS011;9724;51.194;6.856;2023-05-19T10:23:18;5.10;;;1.90;;
19183;SDS011;9724;51.194;6.856;2023-05-19T10:25:44;8.53;;;2.03;;
19183;SDS011;9724;51.194;6.856;2023-05-19T10:28:13;11.07;;;2.10;;
19183;SDS011;9724;51.194;6.856;2023-05-19T10:30:40;7.80;;;2.07;;
19183;SDS011;9724;51.194;6.856;2023-05-19T10:33:11;6.17;;;2.37;;
19183;SDS011;9724;51.194;6.856;2023-05-19T10:35:53;8.30;;;2.33;;
19183;SDS011;9724;51.194;6.856;2023-05-19T10:38:29;9.93;;;2.27;;
19183;SDS011;9724;51.194;6.856;2023-05-19T10:40:59;6.07;;;1.97;;
19183;SDS011;9724;51.194;6.856;2023-05-19T10:43:34;9.47;;;1.93;;
19183;SDS011;9724;51.194;6.856;2023-05-19T10:46:06;4.30;;;2.40;;
19183;SDS011;9724;51.194;6.856;2023-05-19T10:48:33;4.47;;;2.20;;
19183;SDS011;9724;51.194;6.856;2023-05-19T10:51:01;6.50;;;2.07;;
19183;SDS011;9724;51.194;6.856;2023-05-19T10:53:29;5.13;;;2.00;;
19183;SDS011;9724;51.194;6.856;2023-05-19T10:55:56;6.67;;;1.80;;
19183;SDS011;9724;51.194;6.856;2023-05-19T10:58:36;7.10;;;1.90;;
19183;SDS011;9724;51.194;6.856;2023-05-19T11:01:05;5.00;;;2.17;;
19183;SDS011;9724;51.194;6.856;2023-05-19T11:03:36;4.60;;;1.87;;
19183;SDS011;9724;51.194;6.856;2023-05-19T11:06:19;9.27;;;1.80;;
19183;SDS011;9724;51.194;6.856;2023-05-19T11:08:51;9.77;;;2.30;;
19183;SDS011;9724;51.194;6.856;2023-05-19T11:11:18;8.47;;;1.90;;
19183;SDS011;9724;51.194;6.856;2023-05-19T11:13:46;6.63;;;2.10;;
19183;SDS011;9724;51.194;6.856;2023-05-19T11:16:12;3.07;;;1.83;;
19183;SDS011;9724;51.194;6.856;2023-05-19T11:18:39;3.73;;;2.00;;
19183;SDS011;9724;51.194;6.856;2023-05-19T11:21:05;9.27;;;1.97;;
19183;SDS011;9724;51.194;6.856;2023-05-19T11:23:32;6.87;;;2.10;;
19183;SDS011;9724;51.194;6.856;2023-05-19T11:26:02;8.20;;;2.10;;
19183;SDS011;9724;51.194;6.856;2023-05-19T11:28:29;8.47;;;2.00;;
19183;SDS011;9724;51.194;6.856;2023-05-19T11:30:55;6.07;;;2.10;;
19183;SDS011;9724;51.194;6.856;2023-05-19T11:33:23;2.77;;;1.60;;
19183;SDS011;9724;51.194;6.856;2023-05-19T11:35:52;8.33;;;2.30;;
19183;SDS011;9724;51.194;6.856;2023-05-19T11:38:18;5.57;;;1.80;;
19183;SDS011;9724;51.194;6.856;2023-05-19T11:40:47;4.57;;;2.00;;
19183;SDS011;9724;51.194;6.856;2023-05-19T11:43:14;5.90;;;1.93;;
19183;SDS011;9724;51.194;6.856;2023-05-19T11:45:41;8.57;;;1.90;;
19183;SDS011;9724;51.194;6.856;2023-05-19T11:48:09;5.17;;;1.90;;
19183;SDS011;9724;51.194;6.856;2023-05-19T11:50:36;6.83;;;1.97;;
19183;SDS011;9724;51.194;6.856;2023-05-19T11:53:02;4.60;;;1.97;;
19183;SDS011;9724;51.194;6.856;2023-05-19T11:55:29;6.83;;;2.30;;
19183;SDS011;9724;51.194;6.856;2023-05-19T11:57:57;4.03;;;1.77;;
19183;SDS011;9724;51.194;6.856;2023-05-19T12:00:33;6.60;;;1.80;;
19183;SDS011;9724;51.194;6.856;2023-05-19T12:03:03;6.17;;;1.90;;
19183;SDS011;9724;51.194;6.856;2023-05-19T12:05:30;3.70;;;1.73;;
19183;SDS011;9724;51.194;6.856;2023-05-19T12:08:04;8.00;;;2.43;;
19183;SDS011;9724;51.194;6.856;2023-05-19T12:10:31;6.30;;;2.20;;
19183;SDS011;9724;51.194;6.856;2023-05-19T12:12:59;4.20;;;1.90;;
19183;SDS011;9724;51.194;6.856;2023-05-19T12:15:26;6.23;;;2.30;;
19183;SDS011;9724;51.194;6.856;2023-05-19T12:17:55;2.57;;;1.60;;
19183;SDS011;9724;51.194;6.856;2023-05-19T12:20:23;5.60;;;2.27;;
19183;SDS011;9724;51.194;6.856;2023-05-19T12:22:50;7.00;;;2.13;;
19183;SDS011;9724;51.194;6.856;2023-05-19T12:25:17;10.87;;;2.20;;
19183;SDS011;9724;51.194;6.856;2023-05-19T12:27:43;6.73;;;2.03;;
19183;SDS011;9724;51.194;6.856;2023-05-19T12:30:11;7.07;;;2.10;;
19183;SDS011;9724;51.194;6.856;2023-05-19T12:32:38;6.73;;;2.13;;
19183;SDS011;9724;51.194;6.856;2023-05-19T12:35:04;7.03;;;2.20;;
19183;SDS011;9724;51.194;6.856;2023-05-19T12:37:32;2.90;;;1.73;;
19183;SDS011;9724;51.194;6.856;2023-05-19T12:39:59;5.13;;;1.90;;
19183;SDS011;9724;51.194;6.856;2023-05-19T12:42:26;3.03;;;2.03;;
19183;SDS011;9724;51.194;6.856;2023-05-19T12:44:55;5.27;;;1.90;;
19183;SDS011;9724;51.194;6.856;2023-05-19T12:47:28;8.00;;;2.00;;
19183;SDS011;9724;51.194;6.856;2023-05-19T12:49:59;4.60;;;2.00;;
19183;SDS011;9724;51.194;6.856;2023-05-19T12:52:27;8.57;;;1.97;;
19183;SDS011;9724;51.194;6.856;2023-05-19T12:54:56;4.33;;;2.00;;
19183;SDS011;9724;51.194;6.856;2023-05-19T12:57:24;8.07;;;2.20;;
19183;SDS011;9724;51.194;6.856;2023-05-19T12:59:51;5.10;;;1.90;;
19183;SDS011;9724;51.194;6.856;2023-05-19T13:02:17;8.50;;;2.20;;
19183;SDS011;9724;51.194;6.856;2023-05-19T13:04:44;6.40;;;2.00;;
19183;SDS011;9724;51.194;6.856;2023-05-19T13:07:11;4.30;;;2.10;;
19183;SDS011;9724;51.194;6.856;2023-05-19T13:09:38;4.07;;;2.03;;
19183;SDS011;9724;51.194;6.856;2023-05-19T13:12:04;4.87;;;1.90;;
19183;SDS011;9724;51.194;6.856;2023-05-19T13:14:31;2.10;;;1.83;;
19183;SDS011;9724;51.194;6.856;2023-05-19T13:16:57;7.13;;;2.03;;
19183;SDS011;9724;51.194;6.856;2023-05-19T13:19:23;6.23;;;1.97;;
19183;SDS011;9724;51.194;6.856;2023-05-19T13:21:52;6.73;;;1.87;;
19183;SDS011;9724;51.194;6.856;2023-05-19T13:24:18;9.13;;;2.77;;
19183;SDS011;9724;51.194;6.856;2023-05-19T13:26:45;6.70;;;2.00;;
19183;SDS011;9724;51.194;6.856;2023-05-19T13:29:12;8.00;;;2.13;;
19183;SDS011;9724;51.194;6.856;2023-05-19T13:31:38;6.10;;;1.83;;
19183;SDS011;9724;51.194;6.856;2023-05-19T13:34:05;3.60;;;2.50;;
19183;SDS011;9724;51.194;6.856;2023-05-19T13:36:31;6.43;;;2.10;;
19183;SDS011;9724;51.194;6.856;2023-05-19T13:38:58;6.10;;;1.80;;
19183;SDS011;9724;51.194;6.856;2023-05-19T13:41:25;4.93;;;2.17;;
19183;SDS011;9724;51.194;6.856;2023-05-19T13:43:53;10.37;;;1.93;;
19183;SDS011;9724;51.194;6.856;2023-05-19T13:46:20;8.73;;;2.50;;
19183;SDS011;9724;51.194;6.856;2023-05-19T13:48:58;4.73;;;1.90;;
19183;SDS011;9724;51.194;6.856;2023-05-19T13:51:24;4.07;;;1.80;;
19183;SDS011;9724;51.194;6.856;2023-05-19T13:53:51;4.93;;;2.00;;
19183;SDS011;9724;51.194;6.856;2023-05-19T13:56:18;3.13;;;1.87;;
19183;SDS011;9724;51.194;6.856;2023-05-19T13:58:44;7.30;;;2.23;;
19183;SDS011;9724;51.194;6.856;2023-05-19T14:01:11;7.37;;;1.90;;
19183;SDS011;9724;51.194;6.856;2023-05-19T14:03:37;7.93;;;1.90;;
19183;SDS011;9724;51.194;6.856;2023-05-19T14:06:04;17.87;;;2.40;;
19183;SDS011;9724;51.194;6.856;2023-05-19T14:08:30;8.23;;;1.87;;
19183;SDS011;9724;51.194;6.856;2023-05-19T14:10:57;4.73;;;2.10;;
19183;SDS011;9724;51.194;6.856;2023-05-19T14:13:24;4.80;;;2.13;;
19183;SDS011;9724;51.194;6.856;2023-05-19T14:15:59;9.80;;;1.50;;
19183;SDS011;9724;51.194;6.856;2023-05-19T14:18:26;3.17;;;1.93;;
19183;SDS011;9724;51.194;6.856;2023-05-19T14:20:52;4.23;;;1.93;;
19183;SDS011;9724;51.194;6.856;2023-05-19T14:23:18;6.97;;;1.87;;
19183;SDS011;9724;51.194;6.856;2023-05-19T14:25:45;10.93;;;1.70;;
19183;SDS011;9724;51.194;6.856;2023-05-19T14:28:12;8.87;;;1.73;;
19183;SDS011;9724;51.194;6.856;2023-05-19T14:30:39;5.23;;;1.80;;
19183;SDS011;9724;51.194;6.856;2023-05-19T14:33:06;7.33;;;2.00;;
19183;SDS011;9724;51.194;6.856;2023-05-19T14:35:33;5.13;;;1.90;;
19183;SDS011;9724;51.194;6.856;2023-05-19T14:37:59;8.50;;;2.00;;
19183;SDS011;9724;51.194;6.856;2023-05-19T14:40:26;6.20;;;1.80;;
19183;SDS011;9724;51.194;6.856;2023-05-19T14:42:52;5.77;;;1.70;;
19183;SDS011;9724;51.194;6.856;2023-05-19T14:45:18;5.63;;;1.83;;
19183;SDS011;9724;51.194;6.856;2023-05-19T14:47:45;2.83;;;1.57;;
19183;SDS011;9724;51.194;6.856;2023-05-19T14:50:13;4.40;;;1.80;;
19183;SDS011;9724;51.194;6.856;2023-05-19T14:52:39;2.20;;;1.53;;
19183;SDS011;9724;51.194;6.856;2023-05-19T14:55:06;2.67;;;1.60;;
19183;SDS011;9724;51.194;6.856;2023-05-19T14:57:32;6.63;;;2.00;;
19183;SDS011;9724;51.194;6.856;2023-05-19T14:59:59;3.33;;;1.40;;
19183;SDS011;9724;51.194;6.856;2023-05-19T15:02:25;8.50;;;1.80;;